createdAt,value
2023-07-27T00:02:32.850Z,22.27
2023-07-27T00:05:17.226Z,22.40
2023-07-27T00:08:01.404Z,22.33
2023-07-27T00:10:45.627Z,21.93
2023-07-27T00:13:29.765Z,22.49
2023-07-27T00:16:13.839Z,22.41
2023-07-27T00:18:59.261Z,22.73
2023-07-27T00:21:43.480Z,23.11
2023-07-27T00:24:27.571Z,22.99
2023-07-27T00:27:11.611Z,23.20
2023-07-27T00:29:55.730Z,23.17
2023-07-27T00:32:39.912Z,23.25
2023-07-27T00:35:25.381Z,23.20
2023-07-27T00:38:09.485Z,23.26
2023-07-27T00:40:53.608Z,23.21
2023-07-27T00:43:37.654Z,23.25
2023-07-27T00:46:21.816Z,23.30
2023-07-27T00:49:06.919Z,23.42
2023-07-27T00:51:53.146Z,23.46
2023-07-27T00:54:37.700Z,22.77
2023-07-27T00:57:22.479Z,22.99
2023-07-27T01:00:07.461Z,23.03
2023-07-27T01:02:52.246Z,22.71
2023-07-27T01:05:36.817Z,22.94
2023-07-27T01:08:23.260Z,22.96
2023-07-27T01:11:13.450Z,22.88
2023-07-27T01:14:03.069Z,22.70
2023-07-27T01:16:54.046Z,22.53
2023-07-27T01:20:11.152Z,22.67
2023-07-27T01:23:22.229Z,22.43
2023-07-27T01:26:42.287Z,22.27
2023-07-27T01:30:05.034Z,22.11
2023-07-27T01:32:57.548Z,22.15
2023-07-27T01:35:48.692Z,21.91
2023-07-27T01:38:34.791Z,22.25
2023-07-27T01:41:20.393Z,22.33
2023-07-27T01:44:05.039Z,22.09
2023-07-27T01:46:49.331Z,22.30
2023-07-27T01:49:36.333Z,22.07
2023-07-27T01:52:22.380Z,22.40
2023-07-27T01:55:08.333Z,22.19
2023-07-27T01:57:53.684Z,22.02
2023-07-27T02:00:38.351Z,22.34
2023-07-27T02:03:22.791Z,21.82
2023-07-27T02:06:08.325Z,22.04
2023-07-27T02:08:52.397Z,21.70
2023-07-27T02:11:38.687Z,21.98
2023-07-27T02:14:29.971Z,21.70
2023-07-27T02:17:29.599Z,21.75
2023-07-27T02:20:38.112Z,21.59
2023-07-27T02:23:24.524Z,21.70
2023-07-27T02:26:09.199Z,21.78
2023-07-27T02:28:53.389Z,21.57
2023-07-27T02:31:37.585Z,21.43
2023-07-27T02:34:22.507Z,21.74
2023-07-27T02:37:07.239Z,21.85
2023-07-27T02:39:52.831Z,21.62
2023-07-27T02:42:37.078Z,21.57
2023-07-27T02:45:21.068Z,21.34
2023-07-27T02:48:05.416Z,21.35
2023-07-27T02:50:52.857Z,21.42
2023-07-27T02:53:37.625Z,21.51
2023-07-27T02:56:32.051Z,21.63
2023-07-27T02:59:16.378Z,21.80
2023-07-27T03:02:02.680Z,21.38
2023-07-27T03:04:51.789Z,21.75
2023-07-27T03:07:36.036Z,21.70
2023-07-27T03:10:20.104Z,21.73
2023-07-27T03:13:06.223Z,21.01
2023-07-27T03:15:52.913Z,21.76
2023-07-27T03:18:37.563Z,21.42
2023-07-27T03:21:21.588Z,21.61
2023-07-27T03:24:06.137Z,21.56
2023-07-27T03:26:52.090Z,20.53
2023-07-27T03:29:37.970Z,20.50
2023-07-27T03:32:27.762Z,20.22
2023-07-27T03:35:11.899Z,19.73
2023-07-27T03:37:56.057Z,19.66
2023-07-27T03:40:41.205Z,20.08
2023-07-27T03:43:25.284Z,19.95
2023-07-27T03:46:11.050Z,19.87
2023-07-27T03:48:55.481Z,20.02
2023-07-27T03:51:39.627Z,19.94
2023-07-27T03:54:23.697Z,20.25
2023-07-27T03:57:08.050Z,20.29
2023-07-27T03:59:56.658Z,20.57
2023-07-27T04:02:42.156Z,20.43
2023-07-27T04:05:26.613Z,20.63
2023-07-27T04:08:11.602Z,20.79
2023-07-27T04:10:55.799Z,21.08
2023-07-27T04:13:40.216Z,21.10
2023-07-27T04:16:24.571Z,20.82
2023-07-27T04:19:10.333Z,20.42
2023-07-27T04:21:54.407Z,19.95
2023-07-27T04:24:39.992Z,19.45
2023-07-27T04:27:24.099Z,19.39
2023-07-27T04:30:09.217Z,19.69
2023-07-27T04:32:53.321Z,19.23
2023-07-27T04:35:38.988Z,19.30
2023-07-27T04:38:23.050Z,19.65
2023-07-27T04:41:07.349Z,19.82
2023-07-27T04:43:51.502Z,19.65
2023-07-27T04:46:36.138Z,19.68
2023-07-27T04:49:20.756Z,20.06
2023-07-27T04:52:07.410Z,20.13
2023-07-27T04:54:51.421Z,20.25
2023-07-27T04:57:35.505Z,20.22
2023-07-27T05:00:20.248Z,20.35
2023-07-27T05:03:04.395Z,20.84
2023-07-27T05:05:48.422Z,20.57
2023-07-27T05:08:34.056Z,20.60
2023-07-27T05:11:18.121Z,20.89
2023-07-27T05:14:02.293Z,20.79
2023-07-27T05:16:46.374Z,20.96
2023-07-27T05:19:30.409Z,20.74
2023-07-27T05:22:14.432Z,20.52
2023-07-27T05:24:59.787Z,20.89
2023-07-27T05:27:44.038Z,21.32
2023-07-27T05:30:28.049Z,21.50
2023-07-27T05:33:12.327Z,21.84
2023-07-27T05:35:56.443Z,21.83
2023-07-27T05:38:40.502Z,21.79
2023-07-27T05:41:26.062Z,21.64
2023-07-27T05:44:11.504Z,21.95
2023-07-27T05:46:57.911Z,21.23
2023-07-27T05:49:42.335Z,21.23
2023-07-27T05:52:26.500Z,20.33
2023-07-27T05:55:10.941Z,20.15
2023-07-27T05:57:58.072Z,19.15
2023-07-27T06:00:45.862Z,18.17
2023-07-27T06:03:29.990Z,18.33
2023-07-27T06:06:13.996Z,18.34
2023-07-27T06:08:58.099Z,18.67
2023-07-27T06:11:42.301Z,18.19
2023-07-27T06:14:27.939Z,18.57
2023-07-27T06:17:12.168Z,18.55
2023-07-27T06:19:56.305Z,19.05
2023-07-27T06:22:40.272Z,19.34
2023-07-27T06:25:24.853Z,19.09
2023-07-27T06:28:08.774Z,19.18
2023-07-27T06:30:54.173Z,19.39
2023-07-27T06:33:38.285Z,18.85
2023-07-27T06:36:23.156Z,19.19
2023-07-27T06:39:07.642Z,19.36
2023-07-27T06:41:52.928Z,19.55
2023-07-27T06:44:45.550Z,19.58
2023-07-27T06:47:31.152Z,19.16
2023-07-27T06:50:15.228Z,19.05
2023-07-27T06:52:59.196Z,19.22
2023-07-27T06:55:43.169Z,19.34
2023-07-27T06:58:27.155Z,19.46
2023-07-27T07:01:12.046Z,19.78
2023-07-27T07:03:57.638Z,19.87
2023-07-27T07:06:42.222Z,19.91
2023-07-27T07:09:26.429Z,19.68
2023-07-27T07:12:11.088Z,19.57
2023-07-27T07:14:55.244Z,19.46
2023-07-27T07:17:39.420Z,19.83
2023-07-27T07:20:25.159Z,19.60
2023-07-27T07:23:09.445Z,20.59
2023-07-27T07:25:53.753Z,20.60
2023-07-27T07:28:37.722Z,20.47
2023-07-27T07:31:21.885Z,20.23
2023-07-27T07:34:06.133Z,20.09
2023-07-27T07:36:51.613Z,19.74
2023-07-27T07:39:35.821Z,19.74
2023-07-27T07:42:19.983Z,19.21
2023-07-27T07:45:04.196Z,19.20
2023-07-27T07:47:49.941Z,18.87
2023-07-27T07:50:38.340Z,18.84
2023-07-27T07:53:33.888Z,17.87
2023-07-27T07:56:21.961Z,17.96
2023-07-27T07:59:06.012Z,17.96
2023-07-27T08:01:50.145Z,17.91
2023-07-27T08:04:34.368Z,17.65
2023-07-27T08:07:18.545Z,17.58
2023-07-27T08:10:04.695Z,17.41
2023-07-27T08:12:50.922Z,18.17
2023-07-27T08:15:35.138Z,18.03
2023-07-27T08:18:19.243Z,18.51
2023-07-27T08:21:05.523Z,18.64
2023-07-27T08:23:49.633Z,18.21
2023-07-27T08:26:35.614Z,18.69
2023-07-27T08:29:19.975Z,19.00
2023-07-27T08:32:04.594Z,18.73
2023-07-27T08:34:48.732Z,18.93
2023-07-27T08:37:32.758Z,18.67
2023-07-27T08:40:17.116Z,18.79
2023-07-27T08:43:05.177Z,18.58
2023-07-27T08:45:50.225Z,18.87
2023-07-27T08:48:35.639Z,18.59
2023-07-27T08:51:20.231Z,18.83
2023-07-27T08:54:04.466Z,18.84
2023-07-27T08:56:48.551Z,18.85
2023-07-27T08:59:34.856Z,18.16
2023-07-27T09:02:19.132Z,18.34
2023-07-27T09:05:03.278Z,18.17
2023-07-27T09:07:52.073Z,17.38
2023-07-27T09:10:36.389Z,17.73
2023-07-27T09:13:20.399Z,17.58
2023-07-27T09:16:07.142Z,17.80
2023-07-27T09:18:51.300Z,17.45
2023-07-27T09:21:41.294Z,17.89
2023-07-27T09:24:25.504Z,18.02
2023-07-27T09:27:13.234Z,17.80
2023-07-27T09:29:59.777Z,18.21
2023-07-27T09:32:45.437Z,18.05
2023-07-27T09:35:29.473Z,17.79
2023-07-27T09:38:13.565Z,18.07
2023-07-27T09:40:57.587Z,17.63
2023-07-27T09:43:42.038Z,17.48
2023-07-27T09:46:26.893Z,17.76
2023-07-27T09:49:13.329Z,17.70
2023-07-27T09:51:58.148Z,17.48
2023-07-27T09:54:43.490Z,17.57
2023-07-27T09:57:28.889Z,17.85
2023-07-27T10:00:14.311Z,17.90
2023-07-27T10:03:09.366Z,17.87
2023-07-27T10:05:56.148Z,17.67
2023-07-27T10:08:40.735Z,17.87
2023-07-27T10:11:32.773Z,17.92
2023-07-27T10:14:21.136Z,17.63
2023-07-27T10:17:08.346Z,18.12
2023-07-27T10:19:53.553Z,18.29
2023-07-27T10:22:39.505Z,17.98
2023-07-27T10:25:23.590Z,17.83
2023-07-27T10:28:11.282Z,18.17
2023-07-27T10:31:17.586Z,17.92
2023-07-27T10:34:23.200Z,17.75
2023-07-27T10:37:10.314Z,17.59
2023-07-27T10:39:57.818Z,17.66
2023-07-27T10:42:58.031Z,17.86
2023-07-27T10:45:42.031Z,17.50
2023-07-27T10:48:26.206Z,17.71
2023-07-27T10:51:11.195Z,17.52
2023-07-27T10:53:55.175Z,17.46
2023-07-27T10:56:42.795Z,17.91
2023-07-27T10:59:30.225Z,17.65
2023-07-27T11:02:21.741Z,17.58
2023-07-27T11:05:08.540Z,17.75
2023-07-27T11:07:52.914Z,18.42
2023-07-27T11:10:37.038Z,18.52
2023-07-27T11:13:26.242Z,19.06
2023-07-27T11:16:10.600Z,19.28
2023-07-27T11:18:55.134Z,19.33
2023-07-27T11:21:41.886Z,19.53
2023-07-27T11:24:27.756Z,19.42
2023-07-27T11:27:14.084Z,18.76
2023-07-27T11:30:01.684Z,18.08
2023-07-27T11:33:00.423Z,17.33
2023-07-27T11:35:47.856Z,16.96
2023-07-27T11:38:31.982Z,16.57
2023-07-27T11:41:45.640Z,16.66
2023-07-27T11:44:22.700Z,16.88
2023-07-27T11:47:09.316Z,17.34
2023-07-27T11:49:53.951Z,18.39
2023-07-27T11:52:40.340Z,18.46
2023-07-27T11:55:24.582Z,19.13
2023-07-27T11:58:10.699Z,19.66
2023-07-27T12:00:56.483Z,20.35
2023-07-27T12:03:46.306Z,20.45
2023-07-27T12:06:31.245Z,20.15
2023-07-27T12:09:15.848Z,20.26
2023-07-27T12:12:00.142Z,19.43
2023-07-27T12:14:45.487Z,19.85
2023-07-27T12:20:25.552Z,20.04
2023-07-27T12:29:40.952Z,20.57
2023-07-27T12:37:37.979Z,20.67
2023-07-27T12:43:26.648Z,19.95
2023-07-27T12:46:12.344Z,19.19
2023-07-27T12:48:56.571Z,18.97
2023-07-27T12:51:41.646Z,18.31
2023-07-27T12:54:28.577Z,18.42
2023-07-27T12:57:14.274Z,19.05
2023-07-27T12:59:59.478Z,18.85
2023-07-27T13:02:45.291Z,19.52
2023-07-27T13:05:30.718Z,19.26
2023-07-27T13:08:15.936Z,19.40
2023-07-27T13:11:02.700Z,19.56
2023-07-27T13:13:48.130Z,20.54
2023-07-27T13:16:35.578Z,20.38
2023-07-27T13:19:21.106Z,20.47
2023-07-27T13:22:07.032Z,20.15
2023-07-27T13:24:53.259Z,20.07
2023-07-27T13:27:40.106Z,19.60
2023-07-27T13:30:25.523Z,19.48
2023-07-27T13:33:10.931Z,19.56
2023-07-27T13:35:56.338Z,19.37
2023-07-27T13:38:41.769Z,19.40
2023-07-27T13:41:26.994Z,20.16
2023-07-27T13:44:13.849Z,19.74
2023-07-27T13:46:59.106Z,19.83
2023-07-27T13:49:44.483Z,19.25
2023-07-27T13:52:29.705Z,19.49
2023-07-27T13:55:15.220Z,20.04
2023-07-27T13:58:00.585Z,20.06
2023-07-27T14:00:47.790Z,19.91
2023-07-27T14:03:32.928Z,20.04
2023-07-27T14:06:17.593Z,19.40
2023-07-27T14:09:02.773Z,19.14
2023-07-27T14:11:47.976Z,19.25
2023-07-27T14:14:32.569Z,19.32
2023-07-27T14:17:19.087Z,19.34
2023-07-27T14:20:04.015Z,19.38
2023-07-27T14:22:49.867Z,19.29
2023-07-27T14:25:35.351Z,19.15
2023-07-27T14:28:20.643Z,18.00
2023-07-27T14:31:12.087Z,17.67
2023-07-27T14:34:02.555Z,17.50
2023-07-27T14:36:48.401Z,17.34
2023-07-27T14:42:21.254Z,17.45
2023-07-27T14:45:06.756Z,17.38
2023-07-27T14:47:52.889Z,17.55
2023-07-27T14:50:39.861Z,17.46
2023-07-27T14:53:25.445Z,17.71
2023-07-27T14:56:10.356Z,17.41
2023-07-27T14:58:56.468Z,17.45
2023-07-27T15:01:52.346Z,17.30
2023-07-27T15:07:26.693Z,17.27
2023-07-27T15:10:29.230Z,17.10
2023-07-27T15:13:15.566Z,17.00
2023-07-27T15:15:59.889Z,16.90
2023-07-27T15:18:44.246Z,17.00
2023-07-27T15:21:28.560Z,17.04
2023-07-27T15:24:14.497Z,17.16
2023-07-27T15:26:59.400Z,17.08
2023-07-27T15:29:56.187Z,17.07
2023-07-27T15:32:40.962Z,17.05
2023-07-27T15:35:26.167Z,16.98
2023-07-27T15:38:10.523Z,16.78
2023-07-27T15:40:58.435Z,16.85
2023-07-27T15:43:43.662Z,16.84
2023-07-27T15:46:28.052Z,16.92
2023-07-27T15:49:12.570Z,16.96
2023-07-27T15:51:56.639Z,16.80
2023-07-27T15:54:40.769Z,16.54
2023-07-27T15:57:26.446Z,16.61
2023-07-27T16:00:12.146Z,16.64
2023-07-27T16:02:56.446Z,16.51
2023-07-27T16:05:41.007Z,17.16
2023-07-27T16:08:26.119Z,16.97
2023-07-27T16:11:13.863Z,17.37
2023-07-27T16:13:59.541Z,16.92
2023-07-27T16:16:44.052Z,16.73
2023-07-27T16:19:30.226Z,16.58
2023-07-27T16:22:14.405Z,16.60
2023-07-27T16:24:59.189Z,16.71
2023-07-27T16:27:44.124Z,16.58
2023-07-27T16:30:30.353Z,16.29
2023-07-27T16:33:14.890Z,16.42
2023-07-27T16:35:59.157Z,16.47
2023-07-27T16:38:43.746Z,16.62
2023-07-27T16:41:28.368Z,16.82
2023-07-27T16:44:12.695Z,16.83
2023-07-27T16:46:58.845Z,16.56
2023-07-27T16:49:43.514Z,16.22
2023-07-27T16:52:27.801Z,16.40
2023-07-27T16:55:12.661Z,16.35
2023-07-27T16:57:57.471Z,16.52
2023-07-27T17:00:42.337Z,16.52
2023-07-27T17:03:29.196Z,16.78
2023-07-27T17:06:16.011Z,16.64
2023-07-27T17:09:00.750Z,16.95
2023-07-27T17:11:46.185Z,17.17
2023-07-27T17:14:31.797Z,17.36
2023-07-27T17:17:16.869Z,17.45
2023-07-27T17:20:03.925Z,17.42
2023-07-27T17:22:49.900Z,17.79
2023-07-27T17:25:35.160Z,17.58
2023-07-27T17:28:20.607Z,17.85
2023-07-27T17:31:06.958Z,17.88
2023-07-27T17:33:52.298Z,17.62
2023-07-27T17:36:41.272Z,17.65
2023-07-27T17:39:26.535Z,17.65
2023-07-27T17:42:11.138Z,17.57
2023-07-27T17:44:56.315Z,17.54
2023-07-27T17:47:41.802Z,17.68
2023-07-27T17:50:27.232Z,17.37
2023-07-27T17:53:13.894Z,17.32
2023-07-27T17:56:05.428Z,17.02
2023-07-27T17:58:50.786Z,17.23
2023-07-27T18:01:36.387Z,17.21
2023-07-27T18:04:21.919Z,17.14
2023-07-27T18:07:07.912Z,17.34
2023-07-27T18:09:55.104Z,17.30
2023-07-27T18:12:40.619Z,17.39
2023-07-27T18:15:26.014Z,17.11
2023-07-27T18:18:10.564Z,17.11
2023-07-27T18:20:55.610Z,16.70
2023-07-27T18:23:41.299Z,17.00
2023-07-27T18:26:28.138Z,17.03
2023-07-27T18:29:13.586Z,16.81
2023-07-27T18:31:58.873Z,17.04
2023-07-27T18:34:44.122Z,17.02
2023-07-27T18:37:28.915Z,16.72
2023-07-27T18:40:14.215Z,16.88
2023-07-27T18:42:59.657Z,17.12
2023-07-27T18:45:51.228Z,16.93
2023-07-27T18:48:35.283Z,16.94
2023-07-27T18:51:19.457Z,17.01
2023-07-27T18:54:03.587Z,17.10
2023-07-27T18:56:47.663Z,16.88
2023-07-27T18:59:33.206Z,17.10
2023-07-27T19:02:17.410Z,16.94
2023-07-27T19:05:01.581Z,16.94
2023-07-27T19:07:48.239Z,16.66
2023-07-27T19:10:32.217Z,17.03
2023-07-27T19:13:16.362Z,16.79
2023-07-27T19:16:05.994Z,16.79
2023-07-27T19:18:50.036Z,16.74
2023-07-27T19:21:34.388Z,16.75
2023-07-27T19:24:18.656Z,16.57
2023-07-27T19:27:02.656Z,16.60
2023-07-27T19:29:46.752Z,16.31
2023-07-27T19:32:32.404Z,16.34
2023-07-27T19:35:17.235Z,16.61
2023-07-27T19:38:01.506Z,16.65
2023-07-27T19:40:45.612Z,16.32
2023-07-27T19:43:29.698Z,16.28
2023-07-27T19:46:13.818Z,16.50
2023-07-27T19:48:59.387Z,16.49
2023-07-27T19:51:43.441Z,16.46
2023-07-27T19:54:27.862Z,16.29
2023-07-27T19:57:12.045Z,16.52
2023-07-27T19:59:56.851Z,16.51
2023-07-27T20:02:40.999Z,16.39
2023-07-27T20:05:26.661Z,16.56
2023-07-27T20:08:10.744Z,16.52
2023-07-27T20:10:54.858Z,16.52
2023-07-27T20:13:38.962Z,16.23
2023-07-27T20:16:24.231Z,16.05
2023-07-27T20:19:08.931Z,16.09
2023-07-27T20:21:55.492Z,15.71
2023-07-27T20:24:41.656Z,15.92
2023-07-27T20:27:27.546Z,15.98
2023-07-27T20:30:12.644Z,15.75
2023-07-27T20:32:56.805Z,15.87
2023-07-27T20:35:40.956Z,15.78
2023-07-27T20:38:26.527Z,16.17
2023-07-27T20:41:10.492Z,15.88
2023-07-27T20:43:54.655Z,15.75
2023-07-27T20:46:38.793Z,15.95
2023-07-27T20:49:23.074Z,15.87
2023-07-27T20:52:07.923Z,15.72
2023-07-27T20:54:53.290Z,15.91
2023-07-27T20:57:37.387Z,15.64
2023-07-27T21:00:21.509Z,15.66
2023-07-27T21:03:06.201Z,15.93
2023-07-27T21:05:50.536Z,15.54
2023-07-27T21:08:35.770Z,15.45
2023-07-27T21:11:21.479Z,15.91
2023-07-27T21:14:05.510Z,15.78
2023-07-27T21:16:50.026Z,15.70
2023-07-27T21:19:34.179Z,15.70
2023-07-27T21:22:18.225Z,15.46
2023-07-27T21:25:02.325Z,15.33
2023-07-27T21:27:49.455Z,15.56
2023-07-27T21:30:33.765Z,15.54
2023-07-27T21:33:27.116Z,15.51
2023-07-27T21:36:12.880Z,15.31
2023-07-27T21:38:56.931Z,15.22
2023-07-27T21:41:40.999Z,15.34
2023-07-27T21:44:26.705Z,15.38
2023-07-27T21:47:10.799Z,15.38
2023-07-27T21:49:54.804Z,15.13
2023-07-27T21:52:38.884Z,15.31
2023-07-27T21:55:23.131Z,15.38
2023-07-27T21:58:07.120Z,15.36
2023-07-27T22:00:52.673Z,15.27
2023-07-27T22:03:37.223Z,15.39
2023-07-27T22:06:21.329Z,15.50
2023-07-27T22:09:05.839Z,15.54
2023-07-27T22:11:49.928Z,15.48
2023-07-27T22:14:34.054Z,15.34
2023-07-27T22:17:19.573Z,15.26
2023-07-27T22:20:03.811Z,15.10
2023-07-27T22:22:50.779Z,15.07
2023-07-27T22:25:34.898Z,15.25
2023-07-27T22:28:19.092Z,15.38
2023-07-27T22:31:04.484Z,15.06
2023-07-27T22:33:50.282Z,15.36
2023-07-27T22:36:34.681Z,15.12
2023-07-27T22:39:19.708Z,15.11
2023-07-27T22:42:03.835Z,15.16
2023-07-27T22:44:47.818Z,15.34
2023-07-27T22:47:31.935Z,15.15
2023-07-27T22:50:17.519Z,15.22
2023-07-27T22:53:01.528Z,14.88
2023-07-27T22:55:46.514Z,14.88
2023-07-27T22:58:30.518Z,14.67
2023-07-27T23:01:15.625Z,14.75
2023-07-27T23:03:59.778Z,15.22
2023-07-27T23:06:45.169Z,14.86
2023-07-27T23:09:29.266Z,14.91
2023-07-27T23:12:13.197Z,15.28
2023-07-27T23:14:57.211Z,15.04
2023-07-27T23:17:41.114Z,15.06
2023-07-27T23:20:25.129Z,14.94
2023-07-27T23:23:10.578Z,14.83
2023-07-27T23:25:54.541Z,14.31
2023-07-27T23:28:38.627Z,14.64
2023-07-27T23:31:22.723Z,14.63
2023-07-27T23:34:06.834Z,14.67
2023-07-27T23:36:50.862Z,14.52
2023-07-27T23:39:36.281Z,14.25
2023-07-27T23:42:20.419Z,14.47
2023-07-27T23:45:05.211Z,14.30
2023-07-27T23:47:49.404Z,14.47
2023-07-27T23:50:33.632Z,14.31
2023-07-27T23:53:17.971Z,14.29
2023-07-27T23:56:03.372Z,14.34
2023-07-27T23:58:47.379Z,14.31
